Huvudsida
METAR-TAF:

METAR-TAF

Flygplatser :

Bergens flygplats. Flesland

Bergen, Norge

latitud: 60-17N, longitud: 005-14E, höjd: 5 m

Aktuellt väderrapport

Denna rapport gjordes för 16 minuter sedan, klockan 13:20 UTC
Vind 10 kt från nordväst
Temperatur 11°C
Fuktighet 62%
Tryck 1003 hPa
Sikt 10 km eller mer
Få moln på en höjd av 3000 ft, Högtornande cumulus.
Få moln på en höjd av 3500 ft
Brutna moln på en höjd av 20000 ft

METAR: ENBR 261320Z 31010KT 9999 FEW030TCU FEW035 BKN200 11/04 Q1003 NOSIG RMK WIND 1200FT 30015KT

Tid: 15:36 (13:36 UTC)

Väderprognos

Prognos gäller från 26 kl. 12 UTC till 27 kl. 12 UTC
Vind 8 kt från nord/nordväst
Sikt 10 km eller mer
Få moln på en höjd av 2000 ft
Spridda moln på en höjd av 4000 ft
Blir
från 27 kl. 08 UTC till 27 kl. 10 UTC
Vind 18 kt från nord/nordväst

TAF: ENBR 2612/2712 33008KT 9999 FEW020 SCT040 BECMG 2708/2710 34018KT

Aktuella väderrapporter och prognoser från 4000 flygplatser (METAR- och TAF-rapporter).

De tillgängliga stationerna syns som gula och röda prickar på kartan.

För musen över prickarna för att se namnen på stationerna.

Klicka sedan för att få väderrapporter och prognoser.

För att ändra kartan: Klicka på de gröna knapparna med ett svart kors på för att zooma in; den gröna knappen med ett streck på för att zooma ut; eller på de gröna pilarna för angränsande kartor.


METAR-TAF: